sensor_id;sensor_type;location;lat;lon;timestamp;pressure;altitude;pressure_sealevel;temperature;humidity
48774;BME280;34576;0.000;0.000;2024-02-04T00:04:48;98000.94;;;16.90;65.84
48774;BME280;34576;0.000;0.000;2024-02-04T00:11:48;97999.97;;;16.97;66.50
48774;BME280;34576;0.000;0.000;2024-02-04T00:18:48;97972.69;;;17.01;67.36
48774;BME280;34576;0.000;0.000;2024-02-04T00:25:49;97950.13;;;17.04;67.40
48774;BME280;34576;0.000;0.000;2024-02-04T00:32:49;97947.00;;;17.07;67.62
48774;BME280;34576;0.000;0.000;2024-02-04T00:39:49;97931.63;;;17.09;68.08
48774;BME280;34576;0.000;0.000;2024-02-04T00:46:50;97927.69;;;17.12;68.33
48774;BME280;34576;0.000;0.000;2024-02-04T00:53:50;97909.88;;;17.12;68.30
48774;BME280;34576;0.000;0.000;2024-02-04T01:00:50;97903.53;;;17.13;68.43
48774;BME280;34576;0.000;0.000;2024-02-04T01:07:51;97930.44;;;17.17;68.20
48774;BME280;34576;0.000;0.000;2024-02-04T01:14:51;97899.34;;;17.17;68.32
48774;BME280;34576;0.000;0.000;2024-02-04T01:21:52;97893.06;;;17.23;69.40
48774;BME280;34576;0.000;0.000;2024-02-04T01:28:52;97882.91;;;17.20;68.97
48774;BME280;34576;0.000;0.000;2024-02-04T01:35:52;97879.19;;;17.21;68.67
48774;BME280;34576;0.000;0.000;2024-02-04T01:42:53;97884.50;;;17.21;68.85
48774;BME280;34576;0.000;0.000;2024-02-04T01:49:54;97907.41;;;17.22;68.96
48774;BME280;34576;0.000;0.000;2024-02-04T01:56:55;97912.72;;;17.22;69.19
48774;BME280;34576;0.000;0.000;2024-02-04T02:03:55;97903.75;;;17.29;68.68
48774;BME280;34576;0.000;0.000;2024-02-04T02:10:57;97888.22;;;17.20;69.41
48774;BME280;34576;0.000;0.000;2024-02-04T02:18:04;97917.25;;;17.22;68.78
48774;BME280;34576;0.000;0.000;2024-02-04T02:25:05;97914.34;;;17.23;68.81
48774;BME280;34576;0.000;0.000;2024-02-04T02:32:07;97893.31;;;17.22;68.97
48774;BME280;34576;0.000;0.000;2024-02-04T02:39:10;97874.44;;;17.23;69.04
48774;BME280;34576;0.000;0.000;2024-02-04T02:46:12;97886.13;;;17.22;69.00
48774;BME280;34576;0.000;0.000;2024-02-04T02:53:13;97895.72;;;17.23;69.17
48774;BME280;34576;0.000;0.000;2024-02-04T03:00:14;97898.38;;;17.23;69.13
48774;BME280;34576;0.000;0.000;2024-02-04T03:07:14;97912.41;;;17.19;68.83
48774;BME280;34576;0.000;0.000;2024-02-04T03:14:15;97926.50;;;17.19;68.83
48774;BME280;34576;0.000;0.000;2024-02-04T03:21:16;97934.56;;;17.24;69.03
48774;BME280;34576;0.000;0.000;2024-02-04T03:28:17;97938.34;;;17.29;68.79
48774;BME280;34576;0.000;0.000;2024-02-04T03:35:19;97949.81;;;17.29;69.15
48774;BME280;34576;0.000;0.000;2024-02-04T03:42:21;97963.66;;;17.31;69.10
48774;BME280;34576;0.000;0.000;2024-02-04T03:49:23;97970.84;;;17.31;68.67
48774;BME280;34576;0.000;0.000;2024-02-04T03:56:23;97976.16;;;17.31;68.83
48774;BME280;34576;0.000;0.000;2024-02-04T04:03:23;97955.91;;;17.30;68.76
48774;BME280;34576;0.000;0.000;2024-02-04T04:10:24;97948.97;;;17.29;68.80
48774;BME280;34576;0.000;0.000;2024-02-04T04:17:24;97924.81;;;17.30;68.32
48774;BME280;34576;0.000;0.000;2024-02-04T04:24:24;97928.03;;;17.32;68.15
48774;BME280;34576;0.000;0.000;2024-02-04T04:31:25;97915.00;;;17.31;68.31
48774;BME280;34576;0.000;0.000;2024-02-04T04:38:25;97892.09;;;17.30;68.37
48774;BME280;34576;0.000;0.000;2024-02-04T04:45:25;97905.38;;;17.30;68.40
48774;BME280;34576;0.000;0.000;2024-02-04T04:52:26;97910.16;;;17.28;68.74
48774;BME280;34576;0.000;0.000;2024-02-04T04:59:26;97895.22;;;17.27;68.60
48774;BME280;34576;0.000;0.000;2024-02-04T05:06:26;97911.44;;;17.25;68.61
48774;BME280;34576;0.000;0.000;2024-02-04T05:13:27;97915.72;;;17.26;68.85
48774;BME280;34576;0.000;0.000;2024-02-04T05:20:27;97914.09;;;17.25;68.99
48774;BME280;34576;0.000;0.000;2024-02-04T05:27:28;97889.38;;;17.24;69.38
48774;BME280;34576;0.000;0.000;2024-02-04T05:34:29;97886.22;;;17.28;69.21
48774;BME280;34576;0.000;0.000;2024-02-04T05:41:31;97886.47;;;17.26;68.85
48774;BME280;34576;0.000;0.000;2024-02-04T05:48:31;97883.94;;;17.19;68.53
48774;BME280;34576;0.000;0.000;2024-02-04T05:55:32;97885.56;;;17.20;68.66
48774;BME280;34576;0.000;0.000;2024-02-04T06:02:32;97889.03;;;17.21;68.55
48774;BME280;34576;0.000;0.000;2024-02-04T06:09:34;97895.63;;;17.18;68.26
48774;BME280;34576;0.000;0.000;2024-02-04T06:16:35;97904.50;;;17.24;68.87
48774;BME280;34576;0.000;0.000;2024-02-04T06:23:35;97938.66;;;17.15;69.17
48774;BME280;34576;0.000;0.000;2024-02-04T06:30:37;97940.28;;;17.16;69.26
48774;BME280;34576;0.000;0.000;2024-02-04T06:37:38;97979.84;;;13.87;57.30
48774;BME280;34576;0.000;0.000;2024-02-04T06:44:38;97997.28;;;13.37;55.94
48774;BME280;34576;0.000;0.000;2024-02-04T06:51:38;98005.63;;;14.17;52.61
48774;BME280;34576;0.000;0.000;2024-02-04T06:58:42;97999.94;;;14.38;51.22
48774;BME280;34576;0.000;0.000;2024-02-04T07:05:42;97999.72;;;14.40;51.84
48774;BME280;34576;0.000;0.000;2024-02-04T07:12:46;97966.13;;;16.28;54.52
48774;BME280;34576;0.000;0.000;2024-02-04T07:19:47;97963.91;;;16.48;55.90
48774;BME280;34576;0.000;0.000;2024-02-04T07:26:48;97953.97;;;16.55;57.18
48774;BME280;34576;0.000;0.000;2024-02-04T07:33:48;97950.38;;;16.62;58.15
48774;BME280;34576;0.000;0.000;2024-02-04T07:40:48;97936.63;;;16.65;58.84
48774;BME280;34576;0.000;0.000;2024-02-04T07:47:48;97926.31;;;16.68;59.15
48774;BME280;34576;0.000;0.000;2024-02-04T07:54:49;97909.09;;;16.71;59.89
48774;BME280;34576;0.000;0.000;2024-02-04T08:01:49;97911.75;;;16.71;60.13
48774;BME280;34576;0.000;0.000;2024-02-04T08:08:49;97895.34;;;16.74;60.69
48774;BME280;34576;0.000;0.000;2024-02-04T08:15:50;97892.44;;;16.76;60.84
48774;BME280;34576;0.000;0.000;2024-02-04T08:22:51;97907.59;;;16.75;60.99
48774;BME280;34576;0.000;0.000;2024-02-04T08:29:52;97935.53;;;16.78;61.27
48774;BME280;34576;0.000;0.000;2024-02-04T08:36:52;97926.75;;;16.77;61.42
48774;BME280;34576;0.000;0.000;2024-02-04T08:43:52;97938.44;;;16.76;61.73
48774;BME280;34576;0.000;0.000;2024-02-04T08:50:53;97927.81;;;16.76;61.86
48774;BME280;34576;0.000;0.000;2024-02-04T08:57:54;97918.22;;;16.75;62.03
48774;BME280;34576;0.000;0.000;2024-02-04T09:04:55;97907.09;;;16.78;62.03
48774;BME280;34576;0.000;0.000;2024-02-04T09:11:55;97909.75;;;16.78;61.90
48774;BME280;34576;0.000;0.000;2024-02-04T09:18:55;97917.75;;;16.78;61.89
48774;BME280;34576;0.000;0.000;2024-02-04T09:25:56;97915.09;;;16.78;61.69
48774;BME280;34576;0.000;0.000;2024-02-04T09:32:56;97905.50;;;16.77;61.83
48774;BME280;34576;0.000;0.000;2024-02-04T09:39:56;97885.06;;;16.78;62.10
48774;BME280;34576;0.000;0.000;2024-02-04T09:46:57;97872.56;;;16.78;62.31
48774;BME280;34576;0.000;0.000;2024-02-04T09:54:02;97865.38;;;16.79;61.96
48774;BME280;34576;0.000;0.000;2024-02-04T10:01:06;97874.66;;;16.76;59.12
48774;BME280;34576;0.000;0.000;2024-02-04T10:08:08;97865.81;;;16.59;60.92
48774;BME280;34576;0.000;0.000;2024-02-04T10:15:09;97866.69;;;16.76;59.78
48774;BME280;34576;0.000;0.000;2024-02-04T10:22:09;97881.81;;;16.76;60.11
48774;BME280;34576;0.000;0.000;2024-02-04T10:29:10;97906.88;;;16.80;60.39
48774;BME280;34576;0.000;0.000;2024-02-04T10:36:10;97905.84;;;16.81;60.69
48774;BME280;34576;0.000;0.000;2024-02-04T10:43:11;97902.69;;;16.84;60.74
48774;BME280;34576;0.000;0.000;2024-02-04T10:50:11;97892.78;;;16.79;61.19
48774;BME280;34576;0.000;0.000;2024-02-04T10:57:13;97871.84;;;16.83;61.64
48774;BME280;34576;0.000;0.000;2024-02-04T11:04:17;97864.59;;;16.78;61.65
48774;BME280;34576;0.000;0.000;2024-02-04T11:11:18;97858.25;;;16.79;61.71
48774;BME280;34576;0.000;0.000;2024-02-04T11:25:45;97855.59;;;16.79;61.73
48774;BME280;34576;0.000;0.000;2024-02-04T11:32:46;97848.91;;;16.77;61.79
48774;BME280;34576;0.000;0.000;2024-02-04T11:39:50;97852.75;;;16.98;61.78
48774;BME280;34576;0.000;0.000;2024-02-04T11:46:51;97850.59;;;16.83;61.96
48774;BME280;34576;0.000;0.000;2024-02-04T11:53:51;97851.41;;;16.83;61.91
48774;BME280;34576;0.000;0.000;2024-02-04T12:00:52;97851.41;;;16.83;62.18
48774;BME280;34576;0.000;0.000;2024-02-04T12:07:53;97834.88;;;16.81;62.04
48774;BME280;34576;0.000;0.000;2024-02-04T12:14:54;97829.81;;;16.80;62.27
48774;BME280;34576;0.000;0.000;2024-02-04T12:21:54;97813.88;;;16.80;62.03
48774;BME280;34576;0.000;0.000;2024-02-04T12:28:55;97806.72;;;16.80;62.14
48774;BME280;34576;0.000;0.000;2024-02-04T12:35:55;97801.97;;;16.82;62.10
48774;BME280;34576;0.000;0.000;2024-02-04T12:43:01;97797.44;;;16.83;62.24
48774;BME280;34576;0.000;0.000;2024-02-04T12:50:02;97798.25;;;16.83;62.11
48774;BME280;34576;0.000;0.000;2024-02-04T12:57:02;97775.38;;;16.82;62.12
48774;BME280;34576;0.000;0.000;2024-02-04T13:04:03;97769.28;;;16.82;62.44
48774;BME280;34576;0.000;0.000;2024-02-04T13:11:03;97762.91;;;16.83;62.32
48774;BME280;34576;0.000;0.000;2024-02-04T13:18:04;97751.22;;;16.84;62.07
48774;BME280;34576;0.000;0.000;2024-02-04T13:25:04;97754.91;;;16.83;62.18
48774;BME280;34576;0.000;0.000;2024-02-04T13:32:05;97734.50;;;16.83;62.41
48774;BME280;34576;0.000;0.000;2024-02-04T13:39:05;97717.47;;;16.84;62.43
48774;BME280;34576;0.000;0.000;2024-02-04T13:46:05;97718.53;;;16.83;62.43
48774;BME280;34576;0.000;0.000;2024-02-04T13:53:06;97719.59;;;16.82;62.31
48774;BME280;34576;0.000;0.000;2024-02-04T14:00:06;97720.06;;;16.79;62.51
48774;BME280;34576;0.000;0.000;2024-02-04T14:07:08;97721.44;;;16.82;62.36
48774;BME280;34576;0.000;0.000;2024-02-04T14:14:09;97717.97;;;16.81;62.51
48774;BME280;34576;0.000;0.000;2024-02-04T14:21:09;97721.44;;;16.82;62.50
48774;BME280;34576;0.000;0.000;2024-02-04T14:28:09;97719.03;;;16.80;62.31
48774;BME280;34576;0.000;0.000;2024-02-04T14:35:10;97727.00;;;16.80;62.35
48774;BME280;34576;0.000;0.000;2024-02-04T14:42:10;97733.34;;;16.79;62.53
48774;BME280;34576;0.000;0.000;2024-02-04T14:49:10;97728.03;;;16.79;62.33
48774;BME280;34576;0.000;0.000;2024-02-04T14:56:10;97731.75;;;16.78;62.63
48774;BME280;34576;0.000;0.000;2024-02-04T15:03:11;97726.66;;;16.77;62.29
48774;BME280;34576;0.000;0.000;2024-02-04T15:10:11;97720.81;;;16.74;62.56
48774;BME280;34576;0.000;0.000;2024-02-04T15:17:12;97728.53;;;16.76;62.42
48774;BME280;34576;0.000;0.000;2024-02-04T15:24:13;97726.41;;;16.78;62.53
48774;BME280;34576;0.000;0.000;2024-02-04T15:31:14;97737.28;;;16.77;62.48
48774;BME280;34576;0.000;0.000;2024-02-04T15:38:14;97753.47;;;16.75;62.76
48774;BME280;34576;0.000;0.000;2024-02-04T15:45:14;97759.03;;;16.73;62.52
48774;BME280;34576;0.000;0.000;2024-02-04T15:52:15;97763.22;;;16.86;63.66
48774;BME280;34576;0.000;0.000;2024-02-04T15:59:16;97776.06;;;16.89;64.76
48774;BME280;34576;0.000;0.000;2024-02-04T16:06:18;97776.63;;;16.91;64.87
48774;BME280;34576;0.000;0.000;2024-02-04T16:13:18;97783.00;;;16.90;64.72
48774;BME280;34576;0.000;0.000;2024-02-04T16:20:20;97777.69;;;16.90;64.70
48774;BME280;34576;0.000;0.000;2024-02-04T16:27:21;97778.22;;;16.93;64.59
48774;BME280;34576;0.000;0.000;2024-02-04T16:34:21;97768.63;;;16.91;64.45
48774;BME280;34576;0.000;0.000;2024-02-04T16:41:21;97759.63;;;16.93;64.67
48774;BME280;34576;0.000;0.000;2024-02-04T16:48:21;97745.84;;;16.96;65.70
48774;BME280;34576;0.000;0.000;2024-02-04T16:55:22;97734.19;;;16.97;66.06
48774;BME280;34576;0.000;0.000;2024-02-04T17:02:22;97725.16;;;16.98;65.78
48774;BME280;34576;0.000;0.000;2024-02-04T17:09:23;97712.91;;;16.97;65.32
48774;BME280;34576;0.000;0.000;2024-02-04T17:16:32;97723.47;;;16.91;65.22
48774;BME280;34576;0.000;0.000;2024-02-04T17:23:38;97718.63;;;16.88;65.06
48774;BME280;34576;0.000;0.000;2024-02-04T17:30:39;97726.03;;;16.86;64.97
48774;BME280;34576;0.000;0.000;2024-02-04T17:37:39;97718.53;;;16.83;64.64
48774;BME280;34576;0.000;0.000;2024-02-04T17:44:40;97727.56;;;16.82;64.42
48774;BME280;34576;0.000;0.000;2024-02-04T17:51:44;97739.47;;;16.80;64.52
48774;BME280;34576;0.000;0.000;2024-02-04T17:58:45;97753.56;;;16.80;64.30
48774;BME280;34576;0.000;0.000;2024-02-04T18:05:47;97748.72;;;16.77;64.17
48774;BME280;34576;0.000;0.000;2024-02-04T18:12:48;97754.38;;;16.81;64.23
48774;BME280;34576;0.000;0.000;2024-02-04T18:19:49;97750.69;;;16.82;64.19
48774;BME280;34576;0.000;0.000;2024-02-04T18:26:49;97755.66;;;16.78;64.04
48774;BME280;34576;0.000;0.000;2024-02-04T18:33:50;97785.38;;;16.75;63.92
48774;BME280;34576;0.000;0.000;2024-02-04T18:40:51;97780.84;;;16.76;63.92
48774;BME280;34576;0.000;0.000;2024-02-04T18:47:51;97783.19;;;16.72;63.95
48774;BME280;34576;0.000;0.000;2024-02-04T18:54:52;97786.75;;;16.78;63.65
48774;BME280;34576;0.000;0.000;2024-02-04T19:01:52;97774.16;;;16.73;63.59
48774;BME280;34576;0.000;0.000;2024-02-04T19:08:53;97768.84;;;16.73;63.58
48774;BME280;34576;0.000;0.000;2024-02-04T19:15:53;97778.44;;;16.74;63.36
48774;BME280;34576;0.000;0.000;2024-02-04T19:22:53;97774.97;;;16.73;63.42
48774;BME280;34576;0.000;0.000;2024-02-04T19:29:55;97782.72;;;16.75;63.20
48774;BME280;34576;0.000;0.000;2024-02-04T19:36:55;97785.25;;;16.70;63.47
48774;BME280;34576;0.000;0.000;2024-02-04T19:43:55;97781.34;;;16.72;63.29
48774;BME280;34576;0.000;0.000;2024-02-04T19:50:55;97779.72;;;16.71;63.42
48774;BME280;34576;0.000;0.000;2024-02-04T19:57:56;97763.53;;;16.73;63.34
48774;BME280;34576;0.000;0.000;2024-02-04T20:04:56;97766.13;;;16.68;63.32
48774;BME280;34576;0.000;0.000;2024-02-04T20:11:56;97768.28;;;16.71;63.07
48774;BME280;34576;0.000;0.000;2024-02-04T20:18:56;97769.09;;;16.71;63.03
48774;BME280;34576;0.000;0.000;2024-02-04T20:25:57;97776.50;;;16.69;63.01
48774;BME280;34576;0.000;0.000;2024-02-04T20:32:57;97776.50;;;16.69;63.01
48774;BME280;34576;0.000;0.000;2024-02-04T20:39:57;97764.66;;;16.77;62.80
48774;BME280;34576;0.000;0.000;2024-02-04T20:46:58;97760.38;;;16.88;62.60
48774;BME280;34576;0.000;0.000;2024-02-04T20:53:58;97757.06;;;16.98;62.59
48774;BME280;34576;0.000;0.000;2024-02-04T21:00:59;97749.63;;;17.00;62.66
48774;BME280;34576;0.000;0.000;2024-02-04T21:08:02;97758.25;;;17.07;63.01
48774;BME280;34576;0.000;0.000;2024-02-04T21:15:02;97753.03;;;17.12;62.91
48774;BME280;34576;0.000;0.000;2024-02-04T21:22:06;97757.34;;;17.18;63.08
48774;BME280;34576;0.000;0.000;2024-02-04T21:29:07;97755.78;;;17.17;63.41
48774;BME280;34576;0.000;0.000;2024-02-04T21:36:10;97735.06;;;17.19;63.54
48774;BME280;34576;0.000;0.000;2024-02-04T21:43:11;97725.13;;;17.32;62.98
48774;BME280;34576;0.000;0.000;2024-02-04T21:50:11;97728.03;;;17.30;64.28
48774;BME280;34576;0.000;0.000;2024-02-04T21:57:11;97723.50;;;17.31;64.81
48774;BME280;34576;0.000;0.000;2024-02-04T22:04:12;97710.75;;;17.33;65.56
48774;BME280;34576;0.000;0.000;2024-02-04T22:11:13;97709.72;;;17.34;65.68
48774;BME280;34576;0.000;0.000;2024-02-04T22:18:14;97704.41;;;17.34;65.80
48774;BME280;34576;0.000;0.000;2024-02-04T22:25:14;97704.97;;;17.36;66.13
48774;BME280;34576;0.000;0.000;2024-02-04T22:32:15;97701.25;;;17.37;66.26
48774;BME280;34576;0.000;0.000;2024-02-04T22:39:15;97696.75;;;17.37;66.71
48774;BME280;34576;0.000;0.000;2024-02-04T22:46:16;97700.75;;;17.40;66.70
48774;BME280;34576;0.000;0.000;2024-02-04T22:53:16;97709.53;;;17.40;67.34
48774;BME280;34576;0.000;0.000;2024-02-04T23:00:16;97720.72;;;17.42;67.65
48774;BME280;34576;0.000;0.000;2024-02-04T23:07:28;97718.66;;;17.45;67.57
48774;BME280;34576;0.000;0.000;2024-02-04T23:14:29;97726.63;;;17.45;67.89
48774;BME280;34576;0.000;0.000;2024-02-04T23:21:29;97732.75;;;17.45;67.63
48774;BME280;34576;0.000;0.000;2024-02-04T23:28:29;97726.34;;;17.63;67.11
48774;BME280;34576;0.000;0.000;2024-02-04T23:35:30;97724.75;;;17.45;67.65
48774;BME280;34576;0.000;0.000;2024-02-04T23:42:30;97724.28;;;17.48;67.67
48774;BME280;34576;0.000;0.000;2024-02-04T23:49:30;97713.63;;;17.48;67.58
48774;BME280;34576;0.000;0.000;2024-02-04T23:56:30;97706.47;;;17.49;67.75
